Dati Storici

Data ora Umidita' aria (%) Temperatura aria (°C) Rad globale (W/m²) Gonioanemometro (°) Tacoanemometro (m/s) Pioggia (mm)
15-06-2020 08:10 93.1 % 20.662 -52.187 0.476 0 0
15-06-2020 08:00 95.4 % 20.109 -65.079 0.097 0 0
15-06-2020 07:50 97.6 % 20.125 -68.399 -0.013 0 0
15-06-2020 07:40 97.6 % 19.727 -62.62 -0.019 0 0
15-06-2020 07:30 97.7 % 19.561 -65.038 -0.01 0 0
15-06-2020 07:20 97.6 % 19.28 -70.003 0.39 0 0
15-06-2020 07:10 97.7 % 19.192 -75.362 0.89 0 0
15-06-2020 07:00 97.7 % 19.138 -77.143 1.014 0 0
15-06-2020 06:50 97.7 % 19.171 -79.654 -0.013 0 0
15-06-2020 06:40 97.7 % 18.982 -79.261 0.741 0 0
15-06-2020 06:30 97.7 % 19.024 -76.774 0.264 0 0
15-06-2020 06:20 97.7 % 18.882 -79.982 -0.012 0 0
15-06-2020 06:10 97.7 % 18.696 -80.177 -0.015 0 0
15-06-2020 06:00 97.8 % 18.602 -75.009 -0.013 0 0
15-06-2020 05:50 97.8 % 18.483 -77.163 0.961 0 0
15-06-2020 05:40 97.8 % 18.452 -77.899 0.457 0 0
15-06-2020 05:30 97.8 % 18.432 -78.384 1.103 0 0
15-06-2020 05:20 97.8 % 18.539 -77.635 -0.012 0 0
15-06-2020 05:10 97.8 % 18.451 -79.844 -0.01 0 0
15-06-2020 05:00 97.8 % 18.518 -77.615 0.387 0 0

I dati sono presentati in modo automatico a scopo informativo. In seguito a verifica i dati possono subire modifiche o essere invalidati e non riportati negli archivi definitivi.